Time;durP1;ratioP1;P1;durP2;ratioP2;P2;SDS_P1;SDS_P2;PMS_P1;PMS_P2;Temp;Humidity;BMP_temperature;BMP_pressure;BME280_temperature;BME280_humidity;BME280_pressure;Samples;Min_cycle;Max_cycle;Signal;HPM_P1;HPM_P2
2022/04/10 00:01:10;;;;;;;178.17;60.00;;;;;;;;;;5099256;28;20451;-74
2022/04/10 00:03:37;;;;;;;181.80;63.47;;;;;;;;;;5098945;28;20550;-73
2022/04/10 00:06:13;;;;;;;163.50;58.83;;;;;;;;;;5098781;28;20565;-73
2022/04/10 00:08:44;;;;;;;169.40;62.40;;;;;;;;;;5098613;28;20561;-73
2022/04/10 00:11:15;;;;;;;173.20;58.77;;;;;;;;;;5099083;28;20468;-74
2022/04/10 00:13:46;;;;;;;162.80;55.97;;;;;;;;;;5099212;28;20992;-74
2022/04/10 00:16:17;;;;;;;173.80;61.80;;;;;;;;;;5099063;28;20459;-74
2022/04/10 00:18:45;;;;;;;172.33;61.27;;;;;;;;;;5099199;28;20520;-74
2022/04/10 00:21:13;;;;;;;163.20;59.00;;;;;;;;;;5097732;28;20894;-74
2022/04/10 00:23:47;;;;;;;177.00;61.00;;;;;;;;;;5098101;28;20456;-74
2022/04/10 00:26:15;;;;;;;180.97;63.27;;;;;;;;;;5098458;28;20479;-74
2022/04/10 00:28:43;;;;;;;169.47;56.80;;;;;;;;;;5098973;28;20494;-73
2022/04/10 00:31:11;;;;;;;171.70;58.97;;;;;;;;;;5098621;28;20459;-72
2022/04/10 00:33:40;;;;;;;170.23;59.30;;;;;;;;;;5098163;28;20483;-74
2022/04/10 00:36:08;;;;;;;178.30;60.27;;;;;;;;;;5098333;28;20424;-74
2022/04/10 00:38:37;;;;;;;176.57;59.20;;;;;;;;;;5098388;28;20447;-74
2022/04/10 00:41:05;;;;;;;167.30;59.93;;;;;;;;;;5098411;28;20885;-73
2022/04/10 00:43:36;;;;;;;177.23;60.67;;;;;;;;;;5097813;28;20455;-73
2022/04/10 00:46:04;;;;;;;185.53;58.77;;;;;;;;;;5097656;28;21018;-73
2022/04/10 00:48:32;;;;;;;180.33;56.60;;;;;;;;;;5098430;28;20868;-73
2022/04/10 00:53:47;;;;;;;194.93;67.27;;;;;;;;;;5097983;28;20490;-74
2022/04/10 00:56:16;;;;;;;166.00;57.73;;;;;;;;;;5098189;28;20444;-74
2022/04/10 00:58:44;;;;;;;169.50;57.00;;;;;;;;;;5098250;28;20917;-75
2022/04/10 01:01:11;;;;;;;187.47;57.77;;;;;;;;;;5097286;28;20455;-74
2022/04/10 01:03:39;;;;;;;162.80;56.70;;;;;;;;;;5097659;28;20487;-74
2022/04/10 01:06:09;;;;;;;161.63;56.07;;;;;;;;;;5097722;28;20447;-74
2022/04/10 01:08:37;;;;;;;153.57;53.93;;;;;;;;;;5097335;28;20514;-74
2022/04/10 01:11:05;;;;;;;162.83;58.37;;;;;;;;;;5097758;28;20825;-74
2022/04/10 01:13:33;;;;;;;165.90;56.83;;;;;;;;;;5097047;28;20498;-74
2022/04/10 01:16:01;;;;;;;159.53;59.40;;;;;;;;;;5097395;28;20701;-74
2022/04/10 01:18:30;;;;;;;158.43;56.50;;;;;;;;;;5097034;28;20470;-74
2022/04/10 01:21:00;;;;;;;161.20;57.20;;;;;;;;;;5096849;28;20448;-74
2022/04/10 01:23:29;;;;;;;151.30;55.00;;;;;;;;;;5077259;28;20850;-74
2022/04/10 01:25:57;;;;;;;160.63;56.77;;;;;;;;;;5077334;28;20886;-74
2022/04/10 01:28:24;;;;;;;128.30;52.00;;;;;;;;;;5076250;28;20496;-74
2022/04/10 01:30:52;;;;;;;156.03;56.97;;;;;;;;;;5090880;28;20451;-74
2022/04/10 01:33:20;;;;;;;177.00;58.43;;;;;;;;;;5097020;28;20513;-74
2022/04/10 01:35:49;;;;;;;144.20;53.43;;;;;;;;;;5097521;28;20456;-74
2022/04/10 01:38:17;;;;;;;134.20;53.37;;;;;;;;;;5097641;28;20554;-74
2022/04/10 01:40:47;;;;;;;134.43;53.90;;;;;;;;;;5097246;28;20918;-74
2022/04/10 01:43:14;;;;;;;166.77;59.17;;;;;;;;;;5096937;28;20466;-74
2022/04/10 01:45:42;;;;;;;170.57;57.37;;;;;;;;;;5095764;28;20474;-74
2022/04/10 01:48:10;;;;;;;179.00;60.00;;;;;;;;;;5096904;28;20473;-74
2022/04/10 01:50:37;;;;;;;176.13;59.03;;;;;;;;;;5095853;28;20460;-74
2022/04/10 01:53:08;;;;;;;174.10;57.27;;;;;;;;;;5096943;28;20483;-74
2022/04/10 01:55:36;;;;;;;174.00;59.20;;;;;;;;;;5096859;28;20460;-74
2022/04/10 01:58:05;;;;;;;172.70;58.30;;;;;;;;;;5096664;28;20513;-74
2022/04/10 02:00:35;;;;;;;173.87;57.90;;;;;;;;;;5096730;28;20455;-74
2022/04/10 02:03:09;;;;;;;171.40;58.47;;;;;;;;;;5096631;28;20473;-74
2022/04/10 02:05:37;;;;;;;151.97;55.67;;;;;;;;;;5096590;28;20551;-74
2022/04/10 02:08:04;;;;;;;151.00;54.67;;;;;;;;;;5096631;28;20440;-74
2022/04/10 02:10:32;;;;;;;168.73;56.53;;;;;;;;;;5097363;28;20466;-74
2022/04/10 02:13:01;;;;;;;154.50;55.47;;;;;;;;;;5096402;28;20490;-74
2022/04/10 02:15:31;;;;;;;137.37;54.53;;;;;;;;;;5096502;28;20452;-74
2022/04/10 02:18:01;;;;;;;152.20;54.73;;;;;;;;;;5096079;28;20550;-74
2022/04/10 02:20:28;;;;;;;145.77;57.17;;;;;;;;;;5096113;28;20439;-73
2022/04/10 02:22:56;;;;;;;140.70;53.97;;;;;;;;;;5095682;28;20483;-74
2022/04/10 02:25:24;;;;;;;140.20;52.63;;;;;;;;;;5096273;28;20487;-74
2022/04/10 02:27:53;;;;;;;139.77;52.97;;;;;;;;;;5095113;28;20459;-74
2022/04/10 02:30:21;;;;;;;143.77;52.93;;;;;;;;;;5096436;28;20451;-74
2022/04/10 02:32:53;;;;;;;154.07;55.80;;;;;;;;;;5096384;28;20557;-73
2022/04/10 02:35:21;;;;;;;147.23;53.03;;;;;;;;;;5096428;28;20452;-74
2022/04/10 02:37:49;;;;;;;168.23;57.77;;;;;;;;;;5095742;28;20455;-73
2022/04/10 02:40:18;;;;;;;166.70;59.50;;;;;;;;;;5095218;28;20501;-73
2022/04/10 02:42:46;;;;;;;158.83;54.60;;;;;;;;;;5096251;28;20462;-73
2022/04/10 02:45:14;;;;;;;152.20;55.80;;;;;;;;;;5095598;28;20700;-74
2022/04/10 02:47:42;;;;;;;167.40;59.43;;;;;;;;;;5096164;28;20875;-75
2022/04/10 02:50:12;;;;;;;155.03;55.70;;;;;;;;;;5096132;28;20464;-73
2022/04/10 02:52:40;;;;;;;170.90;61.77;;;;;;;;;;5095704;28;20558;-74
2022/04/10 02:55:08;;;;;;;180.07;57.90;;;;;;;;;;5096369;28;20562;-74
2022/04/10 02:57:36;;;;;;;160.47;53.27;;;;;;;;;;5096340;28;20456;-73
2022/04/10 03:00:07;;;;;;;172.63;58.30;;;;;;;;;;5096453;28;20809;-72
2022/04/10 03:02:34;;;;;;;131.27;54.10;;;;;;;;;;5096202;28;20473;-74
2022/04/10 03:05:05;;;;;;;160.50;56.03;;;;;;;;;;5096284;28;20435;-74
2022/04/10 03:07:35;;;;;;;139.67;56.07;;;;;;;;;;5096944;28;20478;-74
2022/04/10 03:10:02;;;;;;;140.67;53.47;;;;;;;;;;5075862;28;20460;-74
2022/04/10 03:12:32;;;;;;;150.67;54.97;;;;;;;;;;5076253;28;20460;-74
2022/04/10 03:15:00;;;;;;;144.23;54.83;;;;;;;;;;5075818;28;20510;-74
2022/04/10 03:17:27;;;;;;;160.93;57.67;;;;;;;;;;5076054;28;20475;-74
2022/04/10 03:19:55;;;;;;;172.60;56.93;;;;;;;;;;5075878;28;20452;-74
2022/04/10 03:22:23;;;;;;;169.80;57.63;;;;;;;;;;5075864;28;20468;-74
2022/04/10 03:24:52;;;;;;;167.33;56.10;;;;;;;;;;5075557;28;20456;-75
2022/04/10 03:27:20;;;;;;;180.03;59.47;;;;;;;;;;5076103;28;20859;-74
2022/04/10 03:29:48;;;;;;;165.33;56.50;;;;;;;;;;5075939;28;20444;-74
2022/04/10 03:32:17;;;;;;;160.63;55.17;;;;;;;;;;5077579;28;20962;-74
2022/04/10 03:34:45;;;;;;;171.20;57.60;;;;;;;;;;5078458;28;20480;-73
2022/04/10 03:37:14;;;;;;;152.33;54.77;;;;;;;;;;5094500;28;20452;-75
2022/04/10 03:39:41;;;;;;;148.83;55.20;;;;;;;;;;5099218;28;20447;-74
2022/04/10 03:42:11;;;;;;;156.37;58.03;;;;;;;;;;5099300;28;20546;-74
2022/04/10 03:44:38;;;;;;;150.73;55.53;;;;;;;;;;5099888;28;20534;-74
2022/04/10 03:47:08;;;;;;;150.90;59.57;;;;;;;;;;5099598;28;20455;-74
2022/04/10 03:49:37;;;;;;;145.27;55.23;;;;;;;;;;5099941;28;20818;-74
2022/04/10 03:52:10;;;;;;;147.23;54.87;;;;;;;;;;5099034;28;20880;-74
2022/04/10 03:54:38;;;;;;;154.43;58.00;;;;;;;;;;5099374;28;20475;-74
2022/04/10 03:57:06;;;;;;;167.93;63.17;;;;;;;;;;5099228;28;20732;-74
2022/04/10 03:59:38;;;;;;;157.13;55.13;;;;;;;;;;5099577;28;20466;-74
2022/04/10 04:02:05;;;;;;;151.50;55.37;;;;;;;;;;5098533;28;20515;-74
2022/04/10 04:04:38;;;;;;;157.40;58.10;;;;;;;;;;5098701;28;20870;-73
2022/04/10 04:07:06;;;;;;;149.60;55.67;;;;;;;;;;5099699;28;20459;-73
2022/04/10 04:09:34;;;;;;;161.37;56.57;;;;;;;;;;5099562;28;20458;-75
2022/04/10 04:12:02;;;;;;;146.47;55.80;;;;;;;;;;5099369;28;20862;-74
2022/04/10 04:14:30;;;;;;;159.70;58.20;;;;;;;;;;5099408;28;20483;-74
2022/04/10 04:16:59;;;;;;;158.47;59.03;;;;;;;;;;5098734;28;20485;-74
2022/04/10 04:19:27;;;;;;;140.90;52.97;;;;;;;;;;5099142;28;20950;-75
2022/04/10 04:21:55;;;;;;;147.53;55.27;;;;;;;;;;5099540;28;20458;-74
2022/04/10 04:24:23;;;;;;;151.37;56.20;;;;;;;;;;5099359;28;20448;-74
2022/04/10 04:26:51;;;;;;;149.60;58.00;;;;;;;;;;5097513;28;20467;-75
2022/04/10 04:29:19;;;;;;;150.60;55.53;;;;;;;;;;5099071;28;20563;-74
2022/04/10 04:31:46;;;;;;;157.57;54.87;;;;;;;;;;5098649;28;20462;-75
2022/04/10 04:34:16;;;;;;;157.97;56.73;;;;;;;;;;5097635;28;20475;-74
2022/04/10 04:36:44;;;;;;;158.63;59.10;;;;;;;;;;5079000;28;20452;-75
2022/04/10 04:39:12;;;;;;;146.23;54.77;;;;;;;;;;5079341;28;20507;-75
2022/04/10 04:41:45;;;;;;;145.80;52.30;;;;;;;;;;5099080;28;20539;-74
2022/04/10 04:44:12;;;;;;;143.47;53.77;;;;;;;;;;5098856;28;20604;-74
2022/04/10 04:46:41;;;;;;;143.67;53.00;;;;;;;;;;5098281;28;20428;-74
2022/04/10 04:49:09;;;;;;;136.33;53.40;;;;;;;;;;5098184;28;20466;-74
2022/04/10 04:51:38;;;;;;;141.23;54.20;;;;;;;;;;5097214;28;20455;-74
2022/04/10 04:54:08;;;;;;;134.73;51.80;;;;;;;;;;5098405;28;20534;-74
2022/04/10 04:56:35;;;;;;;141.07;54.50;;;;;;;;;;5098402;28;20463;-74
2022/04/10 04:59:03;;;;;;;143.90;53.27;;;;;;;;;;5098429;28;20540;-74
2022/04/10 05:01:31;;;;;;;118.73;50.57;;;;;;;;;;5097545;28;20460;-74
2022/04/10 05:03:59;;;;;;;127.37;50.00;;;;;;;;;;5097606;28;20520;-75
2022/04/10 05:06:27;;;;;;;135.97;52.10;;;;;;;;;;5098508;28;20780;-74
2022/04/10 05:08:55;;;;;;;138.37;53.77;;;;;;;;;;5098076;28;20456;-73
2022/04/10 05:11:28;;;;;;;148.93;56.77;;;;;;;;;;5099258;28;20455;-74
2022/04/10 05:13:57;;;;;;;126.40;51.00;;;;;;;;;;5102455;28;20854;-75
2022/04/10 05:19:07;;;;;;;141.47;52.97;;;;;;;;;;5096198;28;20907;-75
2022/04/10 05:21:34;;;;;;;139.03;52.40;;;;;;;;;;5097233;28;20456;-74
2022/04/10 05:24:16;;;;;;;147.40;52.90;;;;;;;;;;5097920;28;20743;-73
2022/04/10 05:26:44;;;;;;;158.70;57.17;;;;;;;;;;5088477;28;20498;-75
2022/04/10 05:29:12;;;;;;;160.60;56.03;;;;;;;;;;5076770;28;20464;-74
2022/04/10 05:31:40;;;;;;;168.00;59.40;;;;;;;;;;5080585;28;20432;-74
2022/04/10 05:34:08;;;;;;;157.53;55.17;;;;;;;;;;5079093;28;20482;-75
2022/04/10 05:36:36;;;;;;;156.27;55.10;;;;;;;;;;5077473;28;20500;-74
2022/04/10 05:39:05;;;;;;;167.20;56.87;;;;;;;;;;5077191;28;20795;-76
2022/04/10 05:41:35;;;;;;;162.70;56.67;;;;;;;;;;5076252;28;20440;-75
2022/04/10 05:44:02;;;;;;;161.47;56.63;;;;;;;;;;5076225;28;20451;-75
2022/04/10 05:46:30;;;;;;;148.53;55.27;;;;;;;;;;5081362;28;20457;-75
2022/04/10 05:48:58;;;;;;;171.73;61.07;;;;;;;;;;5076616;28;20739;-74
2022/04/10 05:51:25;;;;;;;161.17;57.73;;;;;;;;;;5076361;28;20460;-74
2022/04/10 05:53:53;;;;;;;155.00;56.43;;;;;;;;;;5077672;28;20467;-74
2022/04/10 05:56:23;;;;;;;152.73;55.80;;;;;;;;;;5095638;28;20483;-75
2022/04/10 05:58:52;;;;;;;171.50;57.90;;;;;;;;;;5096639;28;20463;-74
2022/04/10 06:01:19;;;;;;;168.10;56.40;;;;;;;;;;5096487;28;20448;-74
2022/04/10 06:03:47;;;;;;;165.80;57.10;;;;;;;;;;5096607;28;20470;-74
2022/04/10 06:06:17;;;;;;;167.40;57.70;;;;;;;;;;5097226;28;20455;-75
2022/04/10 06:08:45;;;;;;;160.27;57.10;;;;;;;;;;5097132;28;21007;-74
2022/04/10 06:11:12;;;;;;;163.97;57.43;;;;;;;;;;5097062;28;20459;-74
2022/04/10 06:13:40;;;;;;;159.20;58.87;;;;;;;;;;5094894;28;20528;-75
2022/04/10 06:16:11;;;;;;;158.87;55.80;;;;;;;;;;5082235;28;20503;-74
2022/04/10 06:18:40;;;;;;;159.60;59.30;;;;;;;;;;5076239;28;20875;-75
2022/04/10 06:21:10;;;;;;;153.53;57.90;;;;;;;;;;5076156;28;20738;-74
2022/04/10 06:23:38;;;;;;;158.90;62.27;;;;;;;;;;5081228;28;20460;-75
2022/04/10 06:26:08;;;;;;;150.60;57.60;;;;;;;;;;5090587;28;20471;-74
2022/04/10 06:28:36;;;;;;;166.40;56.60;;;;;;;;;;5096249;28;20523;-74
2022/04/10 06:31:04;;;;;;;161.77;61.17;;;;;;;;;;5096395;28;20572;-74
2022/04/10 06:33:34;;;;;;;185.53;60.93;;;;;;;;;;5096182;28;20525;-73
2022/04/10 06:36:01;;;;;;;183.77;64.27;;;;;;;;;;5096561;28;20499;-75
2022/04/10 06:38:30;;;;;;;178.17;60.37;;;;;;;;;;5096183;28;20551;-74
2022/04/10 06:41:09;;;;;;;178.90;60.63;;;;;;;;;;5095395;28;20462;-75
2022/04/10 06:43:37;;;;;;;178.40;64.90;;;;;;;;;;5094839;28;20945;-74
2022/04/10 06:46:06;;;;;;;171.40;62.60;;;;;;;;;;5095552;28;20454;-74
2022/04/10 06:48:36;;;;;;;155.00;57.37;;;;;;;;;;5091427;28;20480;-74
2022/04/10 06:51:05;;;;;;;159.93;60.03;;;;;;;;;;5095020;28;20456;-73
2022/04/10 06:53:33;;;;;;;172.27;59.10;;;;;;;;;;5096167;28;20486;-74
2022/04/10 06:56:00;;;;;;;165.60;63.37;;;;;;;;;;5095143;28;20586;-74
2022/04/10 06:58:28;;;;;;;153.53;59.17;;;;;;;;;;5096578;28;20448;-74
2022/04/10 07:00:57;;;;;;;165.80;67.47;;;;;;;;;;5096068;28;20460;-74
2022/04/10 07:03:25;;;;;;;162.03;59.57;;;;;;;;;;5095719;28;20443;-73
2022/04/10 07:06:00;;;;;;;170.93;62.07;;;;;;;;;;5088558;28;20533;-74
2022/04/10 07:09:02;;;;;;;193.60;64.17;;;;;;;;;;5079158;28;20532;-73
2022/04/10 07:11:31;;;;;;;194.97;67.30;;;;;;;;;;5080204;28;20463;-74
2022/04/10 07:14:06;;;;;;;151.80;60.53;;;;;;;;;;5087162;28;20451;-74
2022/04/10 07:16:48;;;;;;;177.63;61.63;;;;;;;;;;5100022;28;20498;-74
2022/04/10 07:19:22;;;;;;;188.80;63.57;;;;;;;;;;5099774;28;20498;-75
2022/04/10 07:24:40;;;;;;;176.40;61.50;;;;;;;;;;5099559;28;20431;-73
2022/04/10 07:27:08;;;;;;;204.13;62.60;;;;;;;;;;5097726;28;20506;-75
2022/04/10 07:29:43;;;;;;;161.50;58.70;;;;;;;;;;5100303;28;20444;-74
2022/04/10 07:32:11;;;;;;;156.07;59.97;;;;;;;;;;5100033;28;20458;-74
2022/04/10 07:34:42;;;;;;;155.83;57.67;;;;;;;;;;5096017;28;20451;-74
2022/04/10 07:37:13;;;;;;;161.83;62.43;;;;;;;;;;5099883;28;20467;-74
2022/04/10 07:39:42;;;;;;;145.00;59.00;;;;;;;;;;5099647;28;20797;-74
2022/04/10 07:42:11;;;;;;;126.17;58.73;;;;;;;;;;5100661;28;20554;-74
2022/04/10 07:44:45;;;;;;;151.93;59.77;;;;;;;;;;5100197;28;20479;-75
2022/04/10 07:47:31;;;;;;;173.53;64.07;;;;;;;;;;5095957;28;20502;-74
2022/04/10 07:49:59;;;;;;;153.87;62.37;;;;;;;;;;5079028;28;20511;-74
2022/04/10 07:52:28;;;;;;;165.37;60.23;;;;;;;;;;5078680;28;20892;-74
2022/04/10 07:57:41;;;;;;;177.57;66.57;;;;;;;;;;5090089;28;20456;-74
2022/04/10 08:00:12;;;;;;;173.90;62.50;;;;;;;;;;5092017;28;20518;-74
2022/04/10 08:02:42;;;;;;;178.23;66.30;;;;;;;;;;5098181;28;20687;-73
2022/04/10 08:05:10;;;;;;;170.20;66.53;;;;;;;;;;5098554;28;20439;-73
2022/04/10 08:07:48;;;;;;;183.23;66.10;;;;;;;;;;5098292;28;20451;-73
2022/04/10 08:10:25;;;;;;;187.30;65.97;;;;;;;;;;5098689;28;20471;-73
2022/04/10 08:13:04;;;;;;;196.40;66.37;;;;;;;;;;5099392;28;21098;-73
2022/04/10 08:15:46;;;;;;;176.53;67.87;;;;;;;;;;5099222;28;20528;-74
2022/04/10 08:18:14;;;;;;;188.33;65.97;;;;;;;;;;5098253;28;20736;-73
2022/04/10 08:20:43;;;;;;;197.47;74.10;;;;;;;;;;5098409;28;20458;-74
2022/04/10 08:25:55;;;;;;;198.10;67.37;;;;;;;;;;5097838;28;20440;-73
2022/04/10 08:28:27;;;;;;;179.33;74.40;;;;;;;;;;5098385;28;20522;-73
2022/04/10 08:30:57;;;;;;;183.73;73.37;;;;;;;;;;5098015;28;20542;-73
2022/04/10 08:33:25;;;;;;;165.77;64.73;;;;;;;;;;5097256;28;20526;-73
2022/04/10 08:35:53;;;;;;;166.17;67.77;;;;;;;;;;5098403;28;20495;-73
2022/04/10 08:38:24;;;;;;;160.40;68.60;;;;;;;;;;5098240;28;20456;-73
2022/04/10 08:41:06;;;;;;;136.10;64.37;;;;;;;;;;5097771;28;20447;-74
2022/04/10 08:43:36;;;;;;;143.87;69.50;;;;;;;;;;5097096;28;20448;-74
2022/04/10 08:46:13;;;;;;;145.60;67.07;;;;;;;;;;5096583;28;20440;-74
2022/04/10 08:48:41;;;;;;;147.70;68.77;;;;;;;;;;5097135;28;20542;-73
2022/04/10 08:51:09;;;;;;;145.93;73.87;;;;;;;;;;5096055;28;20512;-73
2022/04/10 08:53:38;;;;;;;161.30;71.60;;;;;;;;;;5096993;28;20459;-74
2022/04/10 08:56:06;;;;;;;188.20;75.53;;;;;;;;;;5097535;28;20493;-73
2022/04/10 08:58:35;;;;;;;197.33;79.93;;;;;;;;;;5098168;28;20463;-73
2022/04/10 09:01:05;;;;;;;181.33;74.00;;;;;;;;;;5096640;28;20745;-73
2022/04/10 09:03:35;;;;;;;201.90;72.50;;;;;;;;;;5097243;28;20447;-74
2022/04/10 09:06:04;;;;;;;204.77;76.07;;;;;;;;;;5096921;28;20455;-74
2022/04/10 09:08:35;;;;;;;206.90;75.97;;;;;;;;;;5097005;28;20457;-73
2022/04/10 09:11:06;;;;;;;200.30;73.00;;;;;;;;;;5096188;28;20455;-73
2022/04/10 09:13:36;;;;;;;193.27;72.87;;;;;;;;;;5096087;28;20498;-72
2022/04/10 09:16:11;;;;;;;141.37;67.07;;;;;;;;;;5096491;28;20582;-73
2022/04/10 09:18:52;;;;;;;173.30;68.53;;;;;;;;;;5097095;28;20835;-73
2022/04/10 09:21:23;;;;;;;170.90;71.73;;;;;;;;;;5095911;28;20455;-72
2022/04/10 09:24:03;;;;;;;169.87;69.93;;;;;;;;;;5095123;28;20818;-73
2022/04/10 09:26:50;;;;;;;167.10;67.80;;;;;;;;;;5076354;28;20467;-73
2022/04/10 09:29:23;;;;;;;169.50;75.00;;;;;;;;;;5079320;28;20466;-72
2022/04/10 09:31:55;;;;;;;162.77;70.77;;;;;;;;;;5092692;28;20506;-73
2022/04/10 09:34:27;;;;;;;178.70;71.00;;;;;;;;;;5089116;28;21052;-73
2022/04/10 09:37:08;;;;;;;178.17;71.10;;;;;;;;;;5075663;28;20491;-74
2022/04/10 09:39:37;;;;;;;185.20;72.30;;;;;;;;;;5076354;28;20455;-72
2022/04/10 09:42:07;;;;;;;185.47;73.30;;;;;;;;;;5075984;28;20449;-72
2022/04/10 09:44:36;;;;;;;180.93;71.80;;;;;;;;;;5075767;28;20932;-72
2022/04/10 09:47:06;;;;;;;178.67;72.57;;;;;;;;;;5075226;28;20535;-73
2022/04/10 09:49:37;;;;;;;192.13;72.00;;;;;;;;;;5075299;28;20514;-72
2022/04/10 09:52:09;;;;;;;174.83;71.30;;;;;;;;;;5077369;28;20531;-73
2022/04/10 09:54:38;;;;;;;191.40;71.90;;;;;;;;;;5095755;28;20448;-74
2022/04/10 09:57:06;;;;;;;182.77;69.07;;;;;;;;;;5095960;28;20484;-73
2022/04/10 09:59:40;;;;;;;199.47;75.90;;;;;;;;;;5095041;28;20444;-73
2022/04/10 10:02:13;;;;;;;189.87;74.17;;;;;;;;;;5095285;28;20874;-73
2022/04/10 10:04:46;;;;;;;189.47;73.80;;;;;;;;;;5095237;28;20444;-74
2022/04/10 10:07:19;;;;;;;198.63;76.83;;;;;;;;;;5095241;28;21051;-73
2022/04/10 10:09:48;;;;;;;180.87;70.93;;;;;;;;;;5095233;28;20455;-73
2022/04/10 10:12:16;;;;;;;203.47;80.80;;;;;;;;;;5094699;28;20455;-72
2022/04/10 10:14:46;;;;;;;178.60;74.43;;;;;;;;;;5094119;28;20455;-72
2022/04/10 10:17:16;;;;;;;198.43;82.17;;;;;;;;;;5094011;28;20475;-73
2022/04/10 10:19:44;;;;;;;181.60;84.37;;;;;;;;;;5094520;28;20486;-74
2022/04/10 10:22:15;;;;;;;155.73;81.97;;;;;;;;;;5095467;28;20463;-74
2022/04/10 10:24:48;;;;;;;164.00;74.47;;;;;;;;;;5094917;28;20452;-73
2022/04/10 10:27:27;;;;;;;170.77;71.40;;;;;;;;;;5095685;28;21082;-73
2022/04/10 10:30:04;;;;;;;167.37;82.17;;;;;;;;;;5094919;28;20483;-72
2022/04/10 10:32:40;;;;;;;152.60;71.53;;;;;;;;;;5094121;28;20520;-72
2022/04/10 10:35:09;;;;;;;183.60;82.60;;;;;;;;;;5095001;28;20537;-72
2022/04/10 10:37:49;;;;;;;181.03;79.70;;;;;;;;;;5094124;28;21024;-72
2022/04/10 10:40:19;;;;;;;161.23;75.47;;;;;;;;;;5074968;28;20498;-72
2022/04/10 10:42:50;;;;;;;184.23;78.90;;;;;;;;;;5094301;28;20456;-72
2022/04/10 10:45:34;;;;;;;191.90;80.80;;;;;;;;;;5093187;28;20446;-72
2022/04/10 10:48:23;;;;;;;167.43;80.07;;;;;;;;;;5073731;28;20522;-72
2022/04/10 10:50:55;;;;;;;171.13;82.87;;;;;;;;;;5074090;28;20454;-72
2022/04/10 10:53:43;;;;;;;198.23;76.57;;;;;;;;;;5092928;28;20917;-72
2022/04/10 10:56:14;;;;;;;200.30;76.50;;;;;;;;;;5094768;28;20485;-72
2022/04/10 10:58:42;;;;;;;203.87;77.10;;;;;;;;;;5094775;28;20504;-72
2022/04/10 11:01:10;;;;;;;199.40;86.20;;;;;;;;;;5094813;28;20466;-72
2022/04/10 11:03:53;;;;;;;189.17;79.63;;;;;;;;;;5093037;28;20572;-72
2022/04/10 11:06:33;;;;;;;199.87;80.77;;;;;;;;;;5094412;28;20451;-72
2022/04/10 11:09:15;;;;;;;201.07;84.27;;;;;;;;;;5094970;28;20455;-73
2022/04/10 11:11:47;;;;;;;218.67;80.67;;;;;;;;;;5093666;28;20489;-73
2022/04/10 11:14:34;;;;;;;199.37;75.97;;;;;;;;;;5093651;28;20744;-73
2022/04/10 11:17:15;;;;;;;190.53;79.90;;;;;;;;;;5093217;28;20475;-72
2022/04/10 11:19:45;;;;;;;171.90;71.40;;;;;;;;;;5093585;28;20551;-73
2022/04/10 11:22:16;;;;;;;190.10;81.40;;;;;;;;;;5094086;28;20463;-73
2022/04/10 11:24:51;;;;;;;198.60;81.10;;;;;;;;;;5093923;28;20448;-72
2022/04/10 11:27:33;;;;;;;203.47;82.83;;;;;;;;;;5093958;28;20527;-73
2022/04/10 11:30:04;;;;;;;213.03;94.80;;;;;;;;;;5093980;28;20455;-72
2022/04/10 11:32:42;;;;;;;206.87;82.60;;;;;;;;;;5093111;28;20460;-72
2022/04/10 11:35:15;;;;;;;217.33;90.43;;;;;;;;;;5094281;28;20473;-72
2022/04/10 11:37:47;;;;;;;214.67;86.40;;;;;;;;;;5093034;28;20598;-72
2022/04/10 11:40:16;;;;;;;251.40;89.30;;;;;;;;;;5093371;28;20534;-72
2022/04/10 11:42:47;;;;;;;223.50;82.93;;;;;;;;;;5093098;28;20464;-73
2022/04/10 11:45:15;;;;;;;233.50;79.50;;;;;;;;;;5094638;28;20550;-74
2022/04/10 11:47:48;;;;;;;207.00;71.40;;;;;;;;;;5093258;28;20486;-73
2022/04/10 11:50:27;;;;;;;218.57;78.77;;;;;;;;;;5083368;28;20475;-73
2022/04/10 11:53:11;;;;;;;212.77;72.03;;;;;;;;;;5079705;28;20492;-73
2022/04/10 11:55:39;;;;;;;208.20;75.33;;;;;;;;;;5098150;28;20544;-72
2022/04/10 11:58:13;;;;;;;222.50;76.83;;;;;;;;;;5096902;28;20483;-72
2022/04/10 12:00:47;;;;;;;237.37;76.63;;;;;;;;;;5097632;28;20453;-71
2022/04/10 12:03:15;;;;;;;210.53;75.03;;;;;;;;;;5097196;28;20586;-71
2022/04/10 12:05:45;;;;;;;202.20;72.57;;;;;;;;;;5095927;28;20428;-72
2022/04/10 12:08:15;;;;;;;216.03;82.47;;;;;;;;;;5096746;28;20439;-72
2022/04/10 12:10:43;;;;;;;206.30;74.63;;;;;;;;;;5097336;28;20432;-71
2022/04/10 12:13:11;;;;;;;229.80;83.67;;;;;;;;;;5096869;28;20509;-71
2022/04/10 12:15:42;;;;;;;223.97;84.27;;;;;;;;;;5096896;28;20451;-71
2022/04/10 12:18:12;;;;;;;218.30;82.70;;;;;;;;;;5094709;28;20881;-72
2022/04/10 12:20:41;;;;;;;211.97;90.70;;;;;;;;;;5095783;28;20461;-72
2022/04/10 12:23:20;;;;;;;211.37;86.50;;;;;;;;;;5097551;28;20458;-72
2022/04/10 12:25:48;;;;;;;221.40;88.97;;;;;;;;;;5098711;28;20455;-72
2022/04/10 12:28:16;;;;;;;198.37;85.63;;;;;;;;;;5105824;28;20440;-72
2022/04/10 12:30:44;;;;;;;217.60;91.20;;;;;;;;;;5103816;28;20455;-72
2022/04/10 12:33:13;;;;;;;202.10;88.37;;;;;;;;;;5095748;28;20448;-72
2022/04/10 12:35:46;;;;;;;221.17;90.57;;;;;;;;;;5094969;28;20467;-72
2022/04/10 12:38:16;;;;;;;215.00;90.67;;;;;;;;;;5096378;28;20511;-72
2022/04/10 12:40:46;;;;;;;207.97;90.17;;;;;;;;;;5093475;28;20554;-72
2022/04/10 12:43:14;;;;;;;223.37;90.67;;;;;;;;;;5096589;28;20452;-73
2022/04/10 12:45:45;;;;;;;188.90;88.90;;;;;;;;;;5094890;28;20451;-72
2022/04/10 12:48:26;;;;;;;212.07;87.57;;;;;;;;;;5076311;28;20459;-72
2022/04/10 12:51:07;;;;;;;201.07;86.10;;;;;;;;;;5076236;28;20460;-72
2022/04/10 12:53:35;;;;;;;206.63;80.00;;;;;;;;;;5076364;28;20475;-72
2022/04/10 12:56:20;;;;;;;207.87;77.37;;;;;;;;;;5076008;28;20847;-74
2022/04/10 12:59:01;;;;;;;218.40;84.30;;;;;;;;;;5074715;28;20510;-72
2022/04/10 13:01:30;;;;;;;221.60;83.17;;;;;;;;;;5090247;28;20455;-72
2022/04/10 13:04:01;;;;;;;234.13;86.47;;;;;;;;;;5094788;28;20472;-72
2022/04/10 13:06:48;;;;;;;221.10;83.87;;;;;;;;;;5094291;28;20454;-72
2022/04/10 13:09:17;;;;;;;219.90;81.80;;;;;;;;;;5094519;28;20538;-71
2022/04/10 13:11:46;;;;;;;210.27;83.30;;;;;;;;;;5094453;28;20486;-72
2022/04/10 13:14:18;;;;;;;204.30;84.60;;;;;;;;;;5094862;28;20443;-71
2022/04/10 13:16:49;;;;;;;212.73;89.43;;;;;;;;;;5095667;28;20549;-72
2022/04/10 13:19:18;;;;;;;216.60;87.00;;;;;;;;;;5092396;28;20439;-71
2022/04/10 13:21:54;;;;;;;220.97;84.70;;;;;;;;;;5096385;28;20452;-72
2022/04/10 13:24:23;;;;;;;221.97;89.77;;;;;;;;;;5096630;28;20461;-72
2022/04/10 13:26:52;;;;;;;227.80;90.07;;;;;;;;;;5096167;28;20454;-72
2022/04/10 13:29:20;;;;;;;236.57;96.73;;;;;;;;;;5094899;28;20456;-73
2022/04/10 13:31:48;;;;;;;232.50;93.43;;;;;;;;;;5107528;28;20893;-73
2022/04/10 13:34:19;;;;;;;198.57;91.70;;;;;;;;;;5100306;28;20471;-72
2022/04/10 13:36:47;;;;;;;191.60;85.87;;;;;;;;;;5095656;28;21147;-72
2022/04/10 13:39:16;;;;;;;194.20;93.73;;;;;;;;;;5093335;28;20506;-72
2022/04/10 13:41:51;;;;;;;223.40;93.10;;;;;;;;;;5095470;28;20444;-72
2022/04/10 13:44:20;;;;;;;220.23;92.73;;;;;;;;;;5095671;28;20455;-73
2022/04/10 13:46:50;;;;;;;217.07;93.00;;;;;;;;;;5094700;28;20456;-72
2022/04/10 13:49:22;;;;;;;198.67;92.57;;;;;;;;;;5096234;28;20440;-72
2022/04/10 13:51:50;;;;;;;192.50;86.07;;;;;;;;;;5087746;28;20907;-72
2022/04/10 13:54:17;;;;;;;183.20;81.03;;;;;;;;;;5090336;28;20527;-72
2022/04/10 13:56:46;;;;;;;231.97;88.53;;;;;;;;;;5102331;28;21071;-73
2022/04/10 13:59:17;;;;;;;239.87;91.97;;;;;;;;;;5077390;27;20469;-73
2022/04/10 14:01:48;;;;;;;237.43;82.60;;;;;;;;;;5092080;28;20462;-72
2022/04/10 14:04:19;;;;;;;234.83;93.60;;;;;;;;;;5094145;28;20471;-72
2022/04/10 14:06:48;;;;;;;235.87;90.37;;;;;;;;;;5115038;28;20823;-72
2022/04/10 14:09:16;;;;;;;234.23;90.37;;;;;;;;;;5092683;28;20544;-71
2022/04/10 14:11:47;;;;;;;238.97;92.90;;;;;;;;;;5085859;28;20731;-72
2022/04/10 14:14:17;;;;;;;267.90;101.07;;;;;;;;;;5092949;28;20712;-72
2022/04/10 14:16:45;;;;;;;253.97;94.40;;;;;;;;;;5093107;28;20448;-72
2022/04/10 14:19:18;;;;;;;248.63;97.13;;;;;;;;;;5093912;28;20458;-72
2022/04/10 14:21:50;;;;;;;241.57;96.77;;;;;;;;;;5090598;28;20454;-72
2022/04/10 14:24:18;;;;;;;253.63;99.87;;;;;;;;;;5094646;28;20563;-72
2022/04/10 14:26:54;;;;;;;243.60;94.70;;;;;;;;;;5094923;28;20911;-71
2022/04/10 14:29:21;;;;;;;257.07;100.47;;;;;;;;;;5093777;28;20871;-73
2022/04/10 14:31:49;;;;;;;261.80;99.57;;;;;;;;;;5093706;28;20439;-73
2022/04/10 14:34:24;;;;;;;245.53;107.57;;;;;;;;;;5094872;28;20755;-73
2022/04/10 14:36:51;;;;;;;245.93;94.37;;;;;;;;;;5093332;28;20455;-72